This is the latest recevied weather packets stored in our database for station/object N4OGP-WX. If no packets are shown the sender has not sent any weather packets the latest 10 day(s).
| Time | Temp. | Humidity | Pressure | Rain* | Wind** | Luminosity | Snow |
|---|---|---|---|---|---|---|---|
| 1777567340 | 27.78° C | 65% | 1010.7 hPa | 0 mm | - | - | - |
| 1777567280 | 23.89° C | 42% | 1020.4 hPa | 0 mm | - | - | - |
| 1777567220 | 27.78° C | 65% | 1010.7 hPa | 0 mm | - | - | - |
| 1777567160 | 23.89° C | 42% | 1020.4 hPa | 0 mm | - | - | - |
| 1777567100 | 23.89° C | 42% | 1020.4 hPa | 0 mm | - | - | - |
| 1777567010 | 23.89° C | 42% | 1020.4 hPa | 0 mm | - | - | - |
| 1777566950 | 27.22° C | 65% | 1010.8 hPa | 0 mm | - | - | - |
| 1777566890 | 27.22° C | 66% | 1010.8 hPa | 0 mm | - | - | - |
| 1777566830 | 23.89° C | 42% | 1020.4 hPa | 0 mm | - | - | - |
| 1777566770 | 27.22° C | 65% | 1010.8 hPa | 0 mm | - | - | - |
| 1777566710 | 23.89° C | 42% | 1020.4 hPa | 0 mm | - | - | - |
| 1777566650 | 23.89° C | 42% | 1020.4 hPa | 0 mm | - | - | - |
| 1777566590 | 23.89° C | 42% | 1020.4 hPa | 0 mm | - | - | - |
| 1777566500 | 27.22° C | 66% | 1010.8 hPa | 0 mm | - | - | - |
| 1777566440 | 23.89° C | 42% | 1020.4 hPa | 0 mm | - | - | - |
| 1777566380 | 26.67° C | 66% | 1010.8 hPa | 0 mm | - | - | - |
| 1777566320 | 23.89° C | 42% | 1020.4 hPa | 0 mm | - | - | - |
| 1777566260 | 23.89° C | 42% | 1020.4 hPa | 0 mm | - | - | - |
| 1777566200 | 26.67° C | 67% | 1010.9 hPa | 0 mm | - | - | - |
| 1777566140 | 23.89° C | 42% | 1020.4 hPa | 0 mm | - | - | - |
| 1777566080 | 23.89° C | 42% | 1020.4 hPa | 0 mm | - | - | - |
| 1777566020 | 23.89° C | 42% | 1020.4 hPa | 0 mm | - | - | - |
| 1777565930 | 23.89° C | 42% | 1020.4 hPa | 0 mm | - | - | - |
| 1777565870 | 26.11° C | 70% | 1010.9 hPa | 0 mm | - | - | - |
| 1777565780 | 23.89° C | 42% | 1020.4 hPa | 0 mm | - | - | - |
* Rain latest hour (hover to see other rain measurements)
** Current wind speed in m/s (hover to see current wind gust speed)